createdAt,value
2023-05-16T00:00:56.547Z,91.52
2023-05-16T00:03:25.366Z,91.48
2023-05-16T00:05:51.660Z,91.44
2023-05-16T00:08:17.931Z,91.92
2023-05-16T00:10:44.186Z,91.87
2023-05-16T00:13:10.489Z,91.84
2023-05-16T00:15:36.714Z,92.00
2023-05-16T00:18:03.258Z,92.20
2023-05-16T00:20:29.858Z,92.51
2023-05-16T00:22:56.468Z,92.56
2023-05-16T00:25:22.912Z,92.71
2023-05-16T00:27:49.188Z,92.56
2023-05-16T00:30:15.421Z,92.75
2023-05-16T00:32:41.744Z,92.67
2023-05-16T00:35:08.034Z,93.11
2023-05-16T00:37:34.286Z,93.05
2023-05-16T00:40:00.588Z,93.27
2023-05-16T00:42:26.870Z,93.24
2023-05-16T00:44:53.120Z,93.29
2023-05-16T00:47:19.419Z,93.58
2023-05-16T00:49:45.693Z,93.50
2023-05-16T00:52:11.976Z,93.87
2023-05-16T00:54:39.608Z,93.54
2023-05-16T00:57:06.206Z,93.95
2023-05-16T00:59:33.006Z,93.78
2023-05-16T01:02:00.498Z,93.98
2023-05-16T01:04:27.500Z,93.71
2023-05-16T01:06:54.430Z,94.21
2023-05-16T01:09:20.727Z,94.13
2023-05-16T01:11:49.799Z,94.10
2023-05-16T01:14:37.006Z,93.76
2023-05-16T01:17:09.111Z,93.57
2023-05-16T01:19:35.389Z,93.66
2023-05-16T01:22:14.414Z,93.44
2023-05-16T01:24:52.776Z,93.35
2023-05-16T01:27:19.085Z,93.55
2023-05-16T01:29:45.316Z,93.40
2023-05-16T01:32:11.547Z,93.11
2023-05-16T01:34:38.268Z,93.02
2023-05-16T01:37:04.604Z,93.18
2023-05-16T01:39:30.908Z,93.30
2023-05-16T01:42:05.154Z,93.38
2023-05-16T01:44:34.514Z,93.31
2023-05-16T01:47:09.025Z,93.39
2023-05-16T01:49:38.546Z,93.68
2023-05-16T01:52:12.757Z,93.92
2023-05-16T01:54:42.056Z,93.79
2023-05-16T01:57:08.804Z,93.82
2023-05-16T01:59:35.544Z,93.91
2023-05-16T02:02:01.953Z,93.81
2023-05-16T02:04:28.231Z,93.67
2023-05-16T02:06:54.593Z,93.62
2023-05-16T02:09:20.917Z,93.96
2023-05-16T02:11:47.246Z,93.86
2023-05-16T02:14:13.712Z,93.74
2023-05-16T02:16:40.043Z,93.29
2023-05-16T02:19:06.397Z,93.37
2023-05-16T02:21:32.861Z,93.60
2023-05-16T02:23:59.100Z,93.54
2023-05-16T02:26:26.505Z,93.31
2023-05-16T02:28:53.039Z,93.46
2023-05-16T02:31:45.891Z,93.35
2023-05-16T02:34:12.216Z,93.20
2023-05-16T02:36:38.494Z,93.31
2023-05-16T02:39:04.764Z,93.69
2023-05-16T02:41:31.059Z,93.81
2023-05-16T02:43:57.404Z,93.74
2023-05-16T02:46:29.706Z,93.84
2023-05-16T02:48:56.568Z,94.06
2023-05-16T02:51:24.491Z,93.86
2023-05-16T02:53:51.266Z,93.99
2023-05-16T02:56:18.022Z,93.98
2023-05-16T02:58:46.698Z,94.05
2023-05-16T03:01:13.414Z,93.89
2023-05-16T03:03:39.967Z,94.10
2023-05-16T03:06:06.540Z,94.06
2023-05-16T03:08:33.280Z,94.46
2023-05-16T03:10:59.965Z,94.34
2023-05-16T03:13:26.509Z,94.22
2023-05-16T03:15:52.896Z,94.20
2023-05-16T03:18:19.247Z,94.45
2023-05-16T03:20:45.701Z,94.34
2023-05-16T03:23:12.200Z,94.21
2023-05-16T03:25:38.485Z,94.65
2023-05-16T03:28:05.638Z,94.70
2023-05-16T03:30:32.177Z,94.44
2023-05-16T03:32:58.580Z,94.02
2023-05-16T03:35:25.221Z,94.17
2023-05-16T03:37:52.029Z,94.17
2023-05-16T03:40:18.334Z,94.00
2023-05-16T03:42:44.922Z,93.70
2023-05-16T03:45:11.511Z,93.78
2023-05-16T03:47:37.897Z,93.52
2023-05-16T03:50:05.191Z,93.32
2023-05-16T03:52:31.508Z,93.42
2023-05-16T03:54:57.781Z,93.66
2023-05-16T03:57:24.026Z,93.37
2023-05-16T03:59:50.316Z,93.15
2023-05-16T04:02:18.788Z,92.74
2023-05-16T04:04:45.556Z,93.07
2023-05-16T04:07:11.806Z,93.12
2023-05-16T04:09:38.047Z,93.46
2023-05-16T04:12:04.510Z,93.64
2023-05-16T04:14:30.769Z,93.21
2023-05-16T04:16:57.130Z,92.34
2023-05-16T04:19:23.500Z,91.94
2023-05-16T04:21:49.751Z,91.90
2023-05-16T04:24:16.423Z,91.56
2023-05-16T04:26:42.666Z,91.98
2023-05-16T04:29:09.234Z,92.22
2023-05-16T04:31:35.579Z,92.46
2023-05-16T04:34:02.000Z,93.04
2023-05-16T04:36:28.401Z,93.42
2023-05-16T04:38:54.929Z,93.60
2023-05-16T04:41:21.173Z,93.55
2023-05-16T04:43:47.714Z,93.63
2023-05-16T04:46:13.971Z,93.66
2023-05-16T04:48:40.574Z,93.63
2023-05-16T04:51:06.937Z,93.70
2023-05-16T04:53:33.177Z,93.70
2023-05-16T04:55:59.777Z,93.35
2023-05-16T04:58:26.030Z,92.75
2023-05-16T05:00:52.365Z,92.56
2023-05-16T05:03:18.775Z,92.36
2023-05-16T05:05:45.123Z,91.48
2023-05-16T05:08:11.441Z,91.25
2023-05-16T05:10:37.791Z,90.63
2023-05-16T05:13:04.169Z,90.24
2023-05-16T05:15:30.578Z,89.70
2023-05-16T05:17:57.078Z,89.73
2023-05-16T05:20:23.451Z,89.20
2023-05-16T05:22:49.743Z,89.08
2023-05-16T05:25:16.223Z,89.00
2023-05-16T05:27:42.523Z,88.39
2023-05-16T05:30:08.984Z,87.79
2023-05-16T05:32:35.338Z,87.72
2023-05-16T05:35:01.819Z,87.25
2023-05-16T05:37:28.466Z,87.09
2023-05-16T05:39:54.921Z,86.88
2023-05-16T05:42:21.334Z,86.77
2023-05-16T05:44:47.630Z,86.64
2023-05-16T05:47:14.524Z,86.33
2023-05-16T05:49:40.992Z,85.76
2023-05-16T05:52:07.303Z,85.37
2023-05-16T05:54:33.664Z,85.28
2023-05-16T05:57:00.034Z,84.35
2023-05-16T05:59:26.308Z,84.07
2023-05-16T06:01:52.800Z,83.44
2023-05-16T06:04:19.662Z,83.16
2023-05-16T06:06:46.061Z,83.05
2023-05-16T06:09:12.578Z,82.58
2023-05-16T06:11:39.172Z,82.33
2023-05-16T06:14:05.419Z,82.14
2023-05-16T06:16:31.730Z,80.53
2023-05-16T06:18:58.147Z,80.45
2023-05-16T06:21:24.477Z,79.93
2023-05-16T06:23:50.775Z,79.36
2023-05-16T06:26:17.240Z,79.16
2023-05-16T06:28:43.565Z,78.97
2023-05-16T06:31:09.898Z,78.92
2023-05-16T06:33:36.228Z,78.06
2023-05-16T06:36:02.610Z,77.73
2023-05-16T06:38:28.860Z,77.71
2023-05-16T06:40:55.088Z,77.55
2023-05-16T06:43:21.406Z,77.34
2023-05-16T06:45:47.686Z,77.16
2023-05-16T06:48:14.544Z,77.05
2023-05-16T06:50:41.040Z,77.00
2023-05-16T06:53:07.352Z,76.74
2023-05-16T06:55:33.755Z,75.92
2023-05-16T06:58:00.326Z,75.74
2023-05-16T07:00:26.681Z,75.66
2023-05-16T07:02:53.119Z,75.63
2023-05-16T07:05:19.457Z,75.80
2023-05-16T07:07:45.820Z,75.28
2023-05-16T07:10:13.294Z,75.06
2023-05-16T07:12:41.094Z,74.75
2023-05-16T07:15:07.782Z,74.24
2023-05-16T07:17:34.689Z,73.74
2023-05-16T07:20:02.969Z,72.74
2023-05-16T07:22:31.449Z,72.40
2023-05-16T07:24:58.705Z,72.95
2023-05-16T07:27:25.474Z,72.66
2023-05-16T07:29:51.770Z,71.75
2023-05-16T07:32:18.124Z,71.79
2023-05-16T07:34:44.526Z,71.70
2023-05-16T07:37:10.876Z,70.77
2023-05-16T07:39:37.271Z,70.15
2023-05-16T07:42:03.612Z,69.97
2023-05-16T07:44:29.909Z,69.53
2023-05-16T07:46:56.248Z,68.39
2023-05-16T07:49:22.610Z,68.61
2023-05-16T07:51:48.944Z,68.43
2023-05-16T07:54:15.321Z,68.23
2023-05-16T07:56:41.757Z,67.67
2023-05-16T07:59:08.306Z,67.29
2023-05-16T08:01:34.725Z,66.71
2023-05-16T08:04:01.268Z,66.47
2023-05-16T08:06:27.789Z,66.22
2023-05-16T08:08:54.218Z,65.74
2023-05-16T08:11:20.523Z,65.41
2023-05-16T08:13:46.896Z,64.87
2023-05-16T08:16:13.286Z,64.36
2023-05-16T08:18:39.761Z,63.50
2023-05-16T08:21:06.122Z,64.21
2023-05-16T08:23:32.511Z,64.70
2023-05-16T08:25:58.807Z,64.49
2023-05-16T08:28:25.228Z,63.69
2023-05-16T08:30:51.740Z,63.82
2023-05-16T08:33:18.107Z,63.85
2023-05-16T08:35:44.486Z,63.67
2023-05-16T08:38:10.760Z,63.76
2023-05-16T08:40:37.072Z,63.13
2023-05-16T08:43:03.620Z,63.29
2023-05-16T08:45:33.359Z,62.63
2023-05-16T08:51:53.132Z,62.80
2023-05-16T08:54:28.059Z,62.79
2023-05-16T08:57:08.431Z,62.39
2023-05-16T08:59:40.627Z,60.74
2023-05-16T09:02:16.542Z,59.16
2023-05-16T09:05:24.359Z,58.22
2023-05-16T09:08:13.559Z,57.79
2023-05-16T09:10:47.242Z,57.39
2023-05-16T09:13:13.578Z,56.48
2023-05-16T09:15:40.012Z,56.12
2023-05-16T09:18:11.353Z,56.57
2023-05-16T09:20:44.608Z,56.88
2023-05-16T09:23:10.943Z,56.29
2023-05-16T09:25:39.385Z,55.67
2023-05-16T09:28:09.893Z,55.90
2023-05-16T09:30:36.451Z,54.71
2023-05-16T09:33:05.890Z,54.01
2023-05-16T09:38:01.417Z,55.81
2023-05-16T09:40:27.759Z,55.37
2023-05-16T09:43:04.219Z,55.87
2023-05-16T09:45:31.044Z,55.05
2023-05-16T09:48:01.925Z,53.26
2023-05-16T09:50:28.312Z,52.86
2023-05-16T09:52:56.194Z,54.01
2023-05-16T09:55:23.015Z,54.11
2023-05-16T09:57:49.501Z,53.09
2023-05-16T10:00:16.174Z,51.74
2023-05-16T10:02:42.698Z,51.22
2023-05-16T10:05:09.454Z,50.70
2023-05-16T10:07:37.069Z,49.92
2023-05-16T10:10:05.397Z,49.29
2023-05-16T10:12:32.474Z,48.09
2023-05-16T10:15:02.971Z,47.45
2023-05-16T10:17:30.707Z,47.22
2023-05-16T10:19:57.831Z,45.74
2023-05-16T10:22:24.632Z,45.38
2023-05-16T10:24:58.164Z,44.91
2023-05-16T10:27:24.840Z,42.45
2023-05-16T10:29:54.673Z,42.54
2023-05-16T10:32:23.369Z,43.01
2023-05-16T10:34:50.130Z,43.39
2023-05-16T10:37:16.456Z,43.87
2023-05-16T10:39:43.120Z,43.78
2023-05-16T10:42:09.658Z,44.05
2023-05-16T10:44:38.296Z,43.88
2023-05-16T10:47:04.683Z,43.15
2023-05-16T10:49:31.144Z,44.03
2023-05-16T10:52:08.151Z,44.47
2023-05-16T10:54:41.946Z,44.84
2023-05-16T11:05:29.503Z,43.14
2023-05-16T11:07:31.556Z,43.96
2023-05-16T11:08:17.510Z,42.73
2023-05-16T11:10:59.798Z,41.54
2023-05-16T11:16:42.976Z,41.87
2023-05-16T11:22:09.072Z,41.25
2023-05-16T11:24:41.574Z,41.23
2023-05-16T11:27:13.835Z,41.11
2023-05-16T11:29:40.188Z,40.97
2023-05-16T11:32:06.597Z,40.29
2023-05-16T11:34:36.032Z,40.09
2023-05-16T11:44:10.711Z,38.83
2023-05-16T11:46:45.059Z,39.15
2023-05-16T11:49:17.038Z,38.88
2023-05-16T11:51:43.399Z,38.44
2023-05-16T11:54:10.083Z,38.03
2023-05-16T11:56:36.472Z,38.37
2023-05-16T11:59:02.821Z,38.54
2023-05-16T12:01:36.184Z,38.66
2023-05-16T12:04:08.929Z,38.28
2023-05-16T12:06:35.545Z,37.88
2023-05-16T12:09:01.868Z,37.69
2023-05-16T12:11:28.149Z,37.53
2023-05-16T12:13:54.604Z,36.91
2023-05-16T12:16:21.248Z,37.15
2023-05-16T12:18:47.703Z,37.67
2023-05-16T12:21:14.130Z,37.28
2023-05-16T12:23:41.515Z,37.80
2023-05-16T12:26:07.812Z,37.91
2023-05-16T12:28:34.164Z,37.58
2023-05-16T12:31:00.776Z,38.26
2023-05-16T12:33:27.300Z,38.91
2023-05-16T12:35:53.860Z,38.94
2023-05-16T12:38:20.313Z,39.50
2023-05-16T12:40:47.065Z,40.34
2023-05-16T12:43:13.366Z,40.62
2023-05-16T12:45:39.761Z,40.18
2023-05-16T12:48:11.551Z,40.49
2023-05-16T12:50:38.529Z,41.24
2023-05-16T12:53:04.838Z,41.62
2023-05-16T12:55:31.134Z,41.56
2023-05-16T12:57:57.473Z,41.57
2023-05-16T13:00:23.847Z,42.03
2023-05-16T13:02:50.397Z,41.83
2023-05-16T13:05:16.758Z,41.91
2023-05-16T13:07:43.202Z,41.60
2023-05-16T13:10:10.535Z,41.83
2023-05-16T13:12:37.385Z,41.88
2023-05-16T13:15:04.323Z,42.21
2023-05-16T13:17:30.726Z,42.20
2023-05-16T13:19:57.144Z,41.89
2023-05-16T13:22:23.496Z,41.63
2023-05-16T13:24:49.780Z,41.72
2023-05-16T13:27:16.550Z,42.18
2023-05-16T13:29:43.284Z,42.19
2023-05-16T13:32:09.737Z,42.53
2023-05-16T13:34:36.108Z,42.86
2023-05-16T13:37:03.759Z,43.29
2023-05-16T13:39:31.621Z,43.47
2023-05-16T13:42:06.248Z,43.80
2023-05-16T13:44:36.217Z,44.42
2023-05-16T13:47:02.976Z,44.71
2023-05-16T13:49:29.369Z,44.78
2023-05-16T13:51:55.706Z,45.12
2023-05-16T13:54:22.096Z,45.44
2023-05-16T13:56:50.113Z,44.89
2023-05-16T13:59:21.174Z,45.35
2023-05-16T14:01:54.035Z,45.51
2023-05-16T14:04:22.211Z,45.68
2023-05-16T14:06:48.615Z,45.84
2023-05-16T14:09:14.975Z,46.26
2023-05-16T14:11:41.580Z,46.27
2023-05-16T14:14:07.900Z,46.39
2023-05-16T14:16:34.220Z,46.79
2023-05-16T14:19:00.657Z,46.75
2023-05-16T14:21:27.046Z,46.88
2023-05-16T14:23:53.378Z,47.35
2023-05-16T14:26:19.867Z,47.71
2023-05-16T14:28:46.267Z,48.07
2023-05-16T14:31:12.650Z,48.29
2023-05-16T14:33:39.049Z,48.75
2023-05-16T14:36:08.403Z,49.15
2023-05-16T14:38:35.278Z,49.54
2023-05-16T14:41:02.135Z,49.87
2023-05-16T14:43:28.642Z,50.14
2023-05-16T14:45:55.180Z,50.37
2023-05-16T14:48:21.670Z,50.83
2023-05-16T14:50:48.104Z,51.44
2023-05-16T14:53:14.492Z,51.45
2023-05-16T14:55:40.929Z,51.67
2023-05-16T14:58:07.304Z,52.30
2023-05-16T15:00:33.673Z,52.85
2023-05-16T15:03:00.082Z,53.71
2023-05-16T15:05:26.548Z,54.33
2023-05-16T15:07:53.122Z,54.99
2023-05-16T15:10:19.523Z,55.68
2023-05-16T15:12:46.053Z,56.62
2023-05-16T15:15:14.854Z,57.82
2023-05-16T15:17:42.846Z,58.41
2023-05-16T15:20:10.106Z,58.93
2023-05-16T15:22:36.811Z,59.82
2023-05-16T15:25:03.578Z,60.65
2023-05-16T15:27:29.916Z,61.86
2023-05-16T15:29:59.567Z,62.90
2023-05-16T15:32:26.096Z,63.77
2023-05-16T15:34:52.555Z,64.60
2023-05-16T15:37:20.716Z,65.30
2023-05-16T15:39:47.298Z,65.71
2023-05-16T15:42:13.667Z,66.28
2023-05-16T15:44:40.097Z,66.61
2023-05-16T15:47:06.622Z,67.07
2023-05-16T15:49:36.031Z,68.12
2023-05-16T15:52:02.367Z,68.91
2023-05-16T15:54:29.003Z,69.30
2023-05-16T15:56:56.283Z,69.77
2023-05-16T15:59:23.076Z,70.24
2023-05-16T16:01:49.531Z,70.70
2023-05-16T16:04:16.784Z,71.01
2023-05-16T16:06:43.342Z,71.64
2023-05-16T16:09:12.012Z,72.18
2023-05-16T16:11:38.377Z,72.48
2023-05-16T16:14:04.768Z,72.65
2023-05-16T16:16:31.204Z,73.34
2023-05-16T16:18:57.644Z,73.79
2023-05-16T16:21:24.104Z,74.19
2023-05-16T16:23:50.426Z,74.59
2023-05-16T16:26:16.791Z,75.00
2023-05-16T16:28:43.394Z,75.35
2023-05-16T16:31:09.710Z,75.67
2023-05-16T16:33:36.026Z,75.95
2023-05-16T16:36:02.890Z,76.28
2023-05-16T16:38:29.275Z,76.46
2023-05-16T16:40:55.748Z,76.82
2023-05-16T16:43:22.131Z,77.38
2023-05-16T16:45:48.493Z,77.81
2023-05-16T16:48:14.860Z,77.99
2023-05-16T16:50:44.157Z,78.26
2023-05-16T16:53:10.597Z,78.47
2023-05-16T16:55:38.210Z,79.12
2023-05-16T16:58:05.710Z,79.44
2023-05-16T17:00:32.043Z,79.59
2023-05-16T17:02:58.585Z,79.96
2023-05-16T17:05:25.289Z,79.91
2023-05-16T17:07:51.772Z,80.17
2023-05-16T17:10:18.210Z,80.23
2023-05-16T17:12:44.696Z,80.93
2023-05-16T17:15:10.996Z,81.27
2023-05-16T17:17:37.382Z,81.76
2023-05-16T17:20:05.078Z,82.28
2023-05-16T17:22:31.483Z,82.60
2023-05-16T17:24:57.824Z,82.94
2023-05-16T17:27:24.245Z,83.39
2023-05-16T17:29:50.693Z,83.70
2023-05-16T17:32:20.985Z,84.04
2023-05-16T17:35:15.157Z,84.59
2023-05-16T17:38:11.966Z,85.02
2023-05-16T17:40:43.947Z,85.34
2023-05-16T17:43:23.617Z,85.75
2023-05-16T17:46:09.687Z,86.11
2023-05-16T17:48:38.525Z,86.62
2023-05-16T17:51:08.648Z,86.81
2023-05-16T17:53:39.168Z,87.00
2023-05-16T17:56:30.139Z,87.27
2023-05-16T17:58:59.933Z,87.73
2023-05-16T18:01:31.959Z,88.02
2023-05-16T18:04:02.602Z,88.38
2023-05-16T18:06:33.762Z,88.30
2023-05-16T18:09:19.115Z,88.43
2023-05-16T18:11:48.188Z,88.79
2023-05-16T18:14:17.234Z,88.95
2023-05-16T18:16:43.749Z,89.14
2023-05-16T18:19:10.478Z,89.32
2023-05-16T18:21:37.890Z,89.62
2023-05-16T18:24:06.571Z,89.80
2023-05-16T18:26:41.029Z,90.37
2023-05-16T18:29:10.588Z,90.53
2023-05-16T18:31:37.947Z,90.22
2023-05-16T18:34:04.498Z,90.47
2023-05-16T18:36:31.422Z,90.63
2023-05-16T18:38:59.028Z,91.00
2023-05-16T18:41:27.300Z,91.07
2023-05-16T18:47:22.296Z,91.46
2023-05-16T18:50:00.534Z,91.72
2023-05-16T18:52:30.978Z,91.83
2023-05-16T18:55:01.348Z,92.01
2023-05-16T18:57:34.301Z,92.21
2023-05-16T19:00:01.449Z,92.71
2023-05-16T19:06:06.324Z,93.19
2023-05-16T19:08:46.522Z,93.06
2023-05-16T19:11:16.429Z,93.10
2023-05-16T19:13:47.550Z,93.58
2023-05-16T19:16:16.001Z,93.70
2023-05-16T19:18:43.824Z,93.92
2023-05-16T19:21:48.792Z,93.93
2023-05-16T19:24:25.153Z,94.16
2023-05-16T19:26:56.575Z,94.37
2023-05-16T19:29:27.042Z,94.41
2023-05-16T19:31:57.278Z,94.51
2023-05-16T19:34:27.266Z,94.77
2023-05-16T19:37:01.627Z,95.02
2023-05-16T19:39:30.872Z,94.96
2023-05-16T19:42:06.245Z,94.70
2023-05-16T19:44:33.776Z,94.52
2023-05-16T19:47:00.142Z,94.74
2023-05-16T19:49:28.848Z,94.79
2023-05-16T19:52:06.705Z,95.29
2023-05-16T19:54:33.246Z,95.72
2023-05-16T19:57:01.658Z,95.63
2023-05-16T19:59:29.987Z,95.59
2023-05-16T20:02:00.411Z,95.74
2023-05-16T20:04:29.514Z,95.98
2023-05-16T20:06:56.314Z,96.29
2023-05-16T20:09:22.845Z,96.59
2023-05-16T20:11:49.593Z,96.70
2023-05-16T20:14:16.201Z,96.76
2023-05-16T20:16:42.572Z,96.97
2023-05-16T20:19:09.159Z,96.97
2023-05-16T20:21:35.782Z,96.98
2023-05-16T20:24:02.255Z,97.12
2023-05-16T20:26:31.055Z,97.23
2023-05-16T20:28:59.508Z,97.42
2023-05-16T20:31:26.638Z,97.59
2023-05-16T20:33:54.227Z,97.58
2023-05-16T20:36:21.400Z,98.00
2023-05-16T20:38:48.011Z,98.19
2023-05-16T20:41:14.476Z,98.81
2023-05-16T20:43:41.075Z,99.24
2023-05-16T20:46:07.621Z,99.58
2023-05-16T20:52:06.272Z,100.00
2023-05-16T20:54:39.566Z,100.00
2023-05-16T20:57:09.148Z,100.00
2023-05-16T20:59:36.572Z,100.00
2023-05-16T21:02:07.839Z,100.00
2023-05-16T21:04:36.265Z,100.00
2023-05-16T21:07:02.725Z,100.00
2023-05-16T21:09:29.183Z,100.00
2023-05-16T21:11:56.164Z,100.00
2023-05-16T21:14:25.130Z,100.00
2023-05-16T21:16:54.138Z,100.00
2023-05-16T21:19:20.645Z,100.00
2023-05-16T21:21:49.080Z,100.00
2023-05-16T21:24:15.469Z,100.00
2023-05-16T21:26:41.919Z,100.00
2023-05-16T21:29:08.293Z,100.00
2023-05-16T21:31:37.743Z,100.00
2023-05-16T21:34:06.121Z,100.00
2023-05-16T21:36:35.340Z,100.00
2023-05-16T21:39:01.727Z,100.00
2023-05-16T21:41:28.352Z,100.00
2023-05-16T21:43:54.780Z,100.00
2023-05-16T21:46:21.125Z,100.00
2023-05-16T21:48:47.733Z,100.00
2023-05-16T21:51:14.474Z,100.00
2023-05-16T21:53:48.270Z,100.00
2023-05-16T21:56:14.696Z,100.00
2023-05-16T21:58:41.429Z,100.00
2023-05-16T22:01:07.784Z,100.00
2023-05-16T22:03:34.321Z,100.00
2023-05-16T22:06:00.749Z,100.00
2023-05-16T22:08:27.138Z,100.00
2023-05-16T22:10:53.586Z,100.00
2023-05-16T22:13:20.470Z,100.00
2023-05-16T22:15:59.401Z,100.00
2023-05-16T22:18:31.192Z,100.00
2023-05-16T22:20:57.736Z,100.00
2023-05-16T22:23:24.156Z,100.00
2023-05-16T22:25:53.570Z,100.00
2023-05-16T22:28:21.220Z,100.00
2023-05-16T22:30:47.742Z,100.00
2023-05-16T22:33:14.120Z,100.00
2023-05-16T22:35:40.477Z,100.00
2023-05-16T22:38:06.858Z,100.00
2023-05-16T22:40:33.410Z,100.00
2023-05-16T22:42:59.779Z,100.00
2023-05-16T22:45:26.352Z,100.00
2023-05-16T22:47:52.999Z,100.00
2023-05-16T22:50:19.357Z,100.00
2023-05-16T22:52:45.815Z,100.00
2023-05-16T22:55:12.223Z,100.00
2023-05-16T22:57:38.548Z,100.00
2023-05-16T23:00:05.306Z,100.00
2023-05-16T23:02:31.817Z,100.00
2023-05-16T23:04:58.377Z,100.00
2023-05-16T23:07:25.032Z,100.00
2023-05-16T23:09:51.398Z,100.00
2023-05-16T23:12:17.753Z,100.00
2023-05-16T23:14:44.106Z,100.00
2023-05-16T23:17:10.682Z,100.00
2023-05-16T23:19:37.134Z,100.00
2023-05-16T23:22:03.587Z,100.00
2023-05-16T23:24:30.004Z,100.00
2023-05-16T23:26:56.384Z,100.00
2023-05-16T23:29:22.767Z,100.00
2023-05-16T23:31:49.162Z,100.00
2023-05-16T23:34:15.488Z,100.00
2023-05-16T23:36:41.785Z,100.00
2023-05-16T23:39:08.262Z,100.00
2023-05-16T23:41:34.665Z,100.00
2023-05-16T23:44:01.037Z,100.00
2023-05-16T23:46:27.529Z,100.00
2023-05-16T23:48:53.925Z,100.00
2023-05-16T23:51:20.305Z,100.00
2023-05-16T23:53:46.899Z,100.00
2023-05-16T23:56:15.783Z,100.00
2023-05-16T23:58:42.324Z,100.00
